createdAt,value
2023-07-05T00:01:44.685Z,0
2023-07-05T00:06:27.990Z,0
2023-07-05T00:15:54.222Z,0
2023-07-05T00:20:37.545Z,0
2023-07-05T00:25:20.601Z,0
2023-07-05T00:30:03.928Z,0
2023-07-05T00:39:30.176Z,0
2023-07-05T00:44:13.523Z,0
2023-07-05T00:53:39.905Z,0
2023-07-05T00:58:23.273Z,0
2023-07-05T01:03:06.494Z,0
2023-07-05T01:12:33.059Z,0
2023-07-05T01:17:16.258Z,0
2023-07-05T01:21:59.161Z,0
2023-07-05T01:31:25.698Z,0
2023-07-05T01:36:09.050Z,0
2023-07-05T01:50:18.733Z,0
2023-07-05T01:55:02.010Z,0
2023-07-05T01:59:45.313Z,0
2023-07-05T02:04:28.550Z,0
2023-07-05T02:09:11.757Z,0
2023-07-05T02:13:55.079Z,0
2023-07-05T02:23:21.627Z,0
2023-07-05T02:28:04.911Z,0
2023-07-05T02:32:48.096Z,0
2023-07-05T02:37:31.400Z,0
2023-07-05T02:42:14.610Z,0
2023-07-05T02:46:57.519Z,0
2023-07-05T02:51:40.801Z,0
2023-07-05T02:56:24.037Z,0
2023-07-05T03:01:07.255Z,0
2023-07-05T03:05:50.539Z,0
2023-07-05T03:10:33.850Z,5
2023-07-05T03:15:17.134Z,5
2023-07-05T03:24:43.575Z,11
2023-07-05T03:29:27.047Z,16
2023-07-05T03:34:10.273Z,22
2023-07-05T03:38:53.398Z,28
2023-07-05T03:43:36.753Z,39
2023-07-05T03:48:19.914Z,45
2023-07-05T03:53:03.207Z,56
2023-07-05T03:57:46.419Z,73
2023-07-05T04:02:29.731Z,90
2023-07-05T04:07:12.180Z,118
2023-07-05T04:11:54.831Z,135
2023-07-05T04:16:37.606Z,157
2023-07-05T04:21:20.345Z,151
2023-07-05T04:26:03.131Z,146
2023-07-05T04:30:45.062Z,140
2023-07-05T04:35:27.757Z,146
2023-07-05T04:40:10.483Z,146
2023-07-05T04:44:53.230Z,146
2023-07-05T04:49:36.069Z,118
2023-07-05T04:54:18.724Z,90
2023-07-05T04:59:01.487Z,129
2023-07-05T05:03:44.261Z,151
2023-07-05T05:13:09.620Z,236
2023-07-05T05:17:52.437Z,219
2023-07-05T05:22:35.088Z,191
2023-07-05T05:27:17.802Z,180
2023-07-05T05:32:00.574Z,180
2023-07-05T05:36:43.288Z,180
2023-07-05T05:41:26.069Z,168
2023-07-05T05:46:08.844Z,157
2023-07-05T05:50:51.403Z,123
2023-07-05T05:55:34.209Z,106
2023-07-05T06:04:59.641Z,67
2023-07-05T06:09:41.631Z,61
2023-07-05T06:14:24.334Z,56
2023-07-05T06:19:07.162Z,45
2023-07-05T06:23:49.933Z,61
2023-07-05T06:28:32.630Z,50
2023-07-05T06:33:15.262Z,45
2023-07-05T06:42:40.845Z,101
2023-07-05T06:47:23.479Z,135
2023-07-05T06:52:06.192Z,185
2023-07-05T06:56:48.986Z,219
2023-07-05T07:01:31.870Z,275
2023-07-05T07:06:14.483Z,348
2023-07-05T07:10:57.114Z,433
2023-07-05T07:15:39.966Z,466
2023-07-05T07:20:22.638Z,472
2023-07-05T07:25:05.432Z,461
2023-07-05T07:29:48.124Z,433
2023-07-05T07:34:30.937Z,540
2023-07-05T07:39:13.570Z,421
2023-07-05T07:43:56.311Z,382
2023-07-05T07:48:38.994Z,613
2023-07-05T07:53:21.819Z,528
2023-07-05T07:58:04.474Z,562
2023-07-05T08:02:47.173Z,1237
2023-07-05T08:07:29.892Z,1715
2023-07-05T08:12:12.847Z,883
2023-07-05T08:16:55.584Z,596
2023-07-05T08:21:38.123Z,585
2023-07-05T08:26:20.893Z,714
2023-07-05T08:31:03.756Z,753
2023-07-05T08:35:46.323Z,781
2023-07-05T08:45:11.857Z,770
2023-07-05T08:49:54.692Z,950
2023-07-05T08:54:37.300Z,933
2023-07-05T09:04:03.322Z,967
2023-07-05T09:08:46.467Z,1051
2023-07-05T09:13:29.869Z,894
2023-07-05T09:18:13.074Z,337
2023-07-05T09:32:22.795Z,112
2023-07-05T09:37:05.691Z,84
2023-07-05T09:41:48.897Z,73
2023-07-05T09:46:32.318Z,56
2023-07-05T09:51:15.419Z,45
2023-07-05T09:55:58.722Z,50
2023-07-05T10:00:41.731Z,50
2023-07-05T10:05:24.935Z,56
2023-07-05T10:10:08.258Z,56
2023-07-05T10:19:34.797Z,50
2023-07-05T10:29:01.328Z,61
2023-07-05T10:33:44.580Z,135
2023-07-05T10:43:11.150Z,90
2023-07-05T10:52:37.612Z,95
2023-07-05T10:57:20.510Z,185
2023-07-05T11:02:03.714Z,478
2023-07-05T11:06:47.207Z,1805
2023-07-05T11:11:30.449Z,3386
2023-07-05T11:16:13.746Z,4134
2023-07-05T11:20:56.996Z,3408
2023-07-05T11:25:40.230Z,3459
2023-07-05T11:30:23.354Z,1816
2023-07-05T11:35:06.734Z,1321
2023-07-05T11:39:50.113Z,2761
2023-07-05T11:44:33.358Z,1170
2023-07-05T11:49:16.586Z,3183
2023-07-05T11:53:59.855Z,3712
2023-07-05T11:58:42.085Z,900
2023-07-05T12:03:25.000Z,3065
2023-07-05T12:08:07.658Z,3166
2023-07-05T12:12:50.479Z,3121
2023-07-05T12:22:15.887Z,3600
2023-07-05T12:26:58.609Z,978
2023-07-05T12:31:41.304Z,3076
2023-07-05T12:36:24.193Z,1215
2023-07-05T12:41:06.126Z,2688
2023-07-05T12:45:48.839Z,905
2023-07-05T12:55:14.184Z,3088
2023-07-05T12:59:57.005Z,2958
2023-07-05T13:04:39.770Z,2913
2023-07-05T13:09:22.479Z,2666
2023-07-05T13:14:04.980Z,2722
2023-07-05T13:18:48.014Z,2565
2023-07-05T13:23:30.790Z,2536
2023-07-05T13:32:56.155Z,2649
2023-07-05T13:37:38.921Z,2610
2023-07-05T13:42:21.604Z,2998
2023-07-05T13:51:46.271Z,2430
2023-07-05T13:56:29.159Z,2801
2023-07-05T14:05:54.548Z,2694
2023-07-05T14:10:37.337Z,2666
2023-07-05T14:15:20.066Z,2694
2023-07-05T14:20:02.756Z,2463
2023-07-05T14:24:45.278Z,2334
2023-07-05T14:34:10.903Z,2283
2023-07-05T14:43:36.338Z,528
2023-07-05T14:48:19.092Z,500
2023-07-05T14:53:01.719Z,489
2023-07-05T15:02:27.335Z,2081
2023-07-05T15:07:09.997Z,2182
2023-07-05T15:11:52.818Z,2103
2023-07-05T15:16:35.508Z,2137
2023-07-05T15:21:18.307Z,2013
2023-07-05T15:26:00.065Z,1766
2023-07-05T15:35:25.829Z,1867
2023-07-05T15:40:08.283Z,1923
2023-07-05T15:44:51.007Z,1816
2023-07-05T15:58:59.432Z,1586
2023-07-05T16:03:42.063Z,1608
2023-07-05T16:13:07.425Z,1513
2023-07-05T16:17:50.275Z,1456
2023-07-05T16:22:33.105Z,1344
2023-07-05T16:27:15.763Z,1130
2023-07-05T16:31:58.521Z,928
2023-07-05T16:36:41.228Z,922
2023-07-05T16:46:06.711Z,1057
2023-07-05T16:55:31.985Z,804
2023-07-05T17:04:57.493Z,787
2023-07-05T17:09:40.217Z,618
2023-07-05T17:14:22.934Z,652
2023-07-05T17:19:05.000Z,241
2023-07-05T17:28:30.529Z,202
2023-07-05T17:42:38.675Z,360
2023-07-05T17:47:21.406Z,275
2023-07-05T17:52:04.282Z,174
2023-07-05T17:56:46.965Z,180
2023-07-05T18:06:12.451Z,151
2023-07-05T18:15:37.878Z,129
2023-07-05T18:25:03.405Z,106
2023-07-05T18:34:28.846Z,123
2023-07-05T18:39:11.587Z,112
2023-07-05T18:43:54.300Z,78
2023-07-05T18:48:37.051Z,61
2023-07-05T18:53:19.714Z,50
2023-07-05T18:58:02.346Z,45
2023-07-05T19:07:27.976Z,22
2023-07-05T19:12:10.692Z,16
2023-07-05T19:16:53.413Z,11
2023-07-05T19:31:01.404Z,0
2023-07-05T19:35:44.206Z,0
2023-07-05T19:40:26.900Z,0
2023-07-05T19:45:09.755Z,0
2023-07-05T19:49:52.324Z,0
2023-07-05T19:54:35.220Z,0
2023-07-05T19:59:17.846Z,0
2023-07-05T20:04:00.601Z,0
2023-07-05T20:13:25.240Z,0
2023-07-05T20:18:08.046Z,0
2023-07-05T20:27:33.510Z,0
2023-07-05T20:36:59.073Z,0
2023-07-05T20:41:41.669Z,0
2023-07-05T20:46:24.384Z,0
2023-07-05T20:51:07.085Z,0
2023-07-05T21:00:32.613Z,0
2023-07-05T21:09:58.162Z,0
2023-07-05T21:14:40.810Z,0
2023-07-05T21:24:06.257Z,0
2023-07-05T21:28:49.124Z,0
2023-07-05T21:33:31.880Z,0
2023-07-05T21:38:14.502Z,0
2023-07-05T21:52:22.804Z,0
2023-07-05T21:57:05.474Z,0
2023-07-05T22:01:48.065Z,0
2023-07-05T22:06:30.890Z,0
2023-07-05T22:11:13.696Z,0
2023-07-05T22:20:38.996Z,0
2023-07-05T22:25:21.711Z,0
2023-07-05T22:30:03.700Z,0
2023-07-05T22:34:46.510Z,0
2023-07-05T22:39:29.216Z,0
2023-07-05T22:44:12.073Z,0
2023-07-05T22:48:54.654Z,0
2023-07-05T22:58:20.127Z,0
2023-07-05T23:07:45.638Z,0
2023-07-05T23:17:11.057Z,0
2023-07-05T23:21:53.906Z,0
2023-07-05T23:36:02.008Z,0
2023-07-05T23:40:44.079Z,0
2023-07-05T23:45:26.687Z,0
2023-07-05T23:59:34.998Z,0
